createdAt,value
2022-12-11T00:01:22.618Z,30.9
2022-12-11T00:06:22.739Z,30.3
2022-12-11T00:11:22.619Z,29.3
2022-12-11T00:16:27.200Z,28.9
2022-12-11T00:21:22.630Z,28.9
2022-12-11T00:26:23.123Z,28.4
2022-12-11T00:31:22.785Z,28.3
2022-12-11T00:36:28.353Z,27.4
2022-12-11T00:41:22.929Z,26.6
2022-12-11T00:46:23.387Z,26.5
2022-12-11T00:51:22.654Z,26.2
2022-12-11T00:56:22.620Z,24.9
2022-12-11T01:01:22.992Z,24.9
2022-12-11T01:06:22.662Z,24.9
2022-12-11T01:11:22.857Z,24.8
2022-12-11T01:21:22.984Z,25.7
2022-12-11T01:26:22.864Z,25.7
2022-12-11T01:31:22.643Z,25.7
2022-12-11T01:36:22.695Z,25.2
2022-12-11T01:41:23.093Z,25.2
2022-12-11T01:46:22.710Z,25.8
2022-12-11T01:51:25.663Z,27.2
2022-12-11T01:56:22.693Z,27.2
2022-12-11T02:01:22.821Z,27.2
2022-12-11T02:06:23.158Z,28.5
2022-12-11T02:11:22.617Z,28.5
2022-12-11T02:16:22.795Z,28.9
2022-12-11T02:21:22.635Z,29
2022-12-11T02:26:22.726Z,30.9
2022-12-11T02:31:22.676Z,34
2022-12-11T02:36:22.631Z,34
2022-12-11T02:41:22.626Z,34
2022-12-11T02:46:23.819Z,33.7
2022-12-11T02:51:22.646Z,33.9
2022-12-11T02:56:22.637Z,33.9
2022-12-11T03:01:22.654Z,33.9
2022-12-11T03:06:22.705Z,33.9
2022-12-11T03:11:22.689Z,33.9
2022-12-11T03:16:22.746Z,34.2
2022-12-11T03:21:22.665Z,36.2
2022-12-11T03:26:22.655Z,36.3
2022-12-11T03:31:22.676Z,36.3
2022-12-11T03:36:22.790Z,37.4
2022-12-11T03:41:22.687Z,38
2022-12-11T03:46:22.702Z,38
2022-12-11T03:51:22.663Z,37.4
2022-12-11T03:56:22.636Z,37.4
2022-12-11T04:01:22.709Z,35.9
2022-12-11T04:06:22.646Z,33.8
2022-12-11T04:11:22.715Z,33.1
2022-12-11T04:16:22.769Z,30.4
2022-12-11T04:21:22.633Z,30
2022-12-11T04:26:22.641Z,30
2022-12-11T04:31:23.762Z,30.4
2022-12-11T04:36:22.713Z,30.5
2022-12-11T04:41:22.722Z,30.5
2022-12-11T04:46:22.716Z,33.3
2022-12-11T04:51:22.646Z,34.3
2022-12-11T04:56:22.648Z,37.8
2022-12-11T05:01:22.857Z,37.9
2022-12-11T05:06:22.670Z,37.9
2022-12-11T05:11:22.797Z,37.9
2022-12-11T05:16:22.684Z,37.8
2022-12-11T05:21:22.709Z,34.3
2022-12-11T05:26:22.649Z,34.3
2022-12-11T05:31:22.937Z,34.3
2022-12-11T05:36:22.714Z,32.8
2022-12-11T05:41:23.386Z,34.3
2022-12-11T05:46:22.721Z,34.3
2022-12-11T05:51:23.184Z,34.5
2022-12-11T05:56:22.683Z,35.5
2022-12-11T06:01:22.730Z,34.5
2022-12-11T06:06:22.660Z,34.3
2022-12-11T06:11:26.023Z,35.5
2022-12-11T06:16:24.267Z,34.3
2022-12-11T06:21:24.229Z,33.6
2022-12-11T06:26:23.153Z,33.6
2022-12-11T06:31:22.776Z,32
2022-12-11T06:36:22.673Z,33.3
2022-12-11T06:41:22.801Z,32
2022-12-11T06:46:22.746Z,32
2022-12-11T06:51:23.677Z,33.3
2022-12-11T06:56:25.231Z,33.8
2022-12-11T07:01:22.769Z,33.8
2022-12-11T07:06:22.723Z,36.7
2022-12-11T07:11:22.777Z,36.7
2022-12-11T07:16:22.781Z,37
2022-12-11T07:21:23.051Z,37.1
2022-12-11T07:26:23.135Z,37.7
2022-12-11T07:31:22.742Z,45
2022-12-11T07:41:23.098Z,51.3
2022-12-11T07:46:22.769Z,51.3
2022-12-11T07:51:22.699Z,51.3
2022-12-11T07:56:22.704Z,52
2022-12-11T08:01:22.820Z,52
2022-12-11T08:06:23.181Z,52
2022-12-11T08:11:22.703Z,52.8
2022-12-11T08:16:22.805Z,54.5
2022-12-11T08:21:23.212Z,59.6
2022-12-11T08:26:22.935Z,59.6
2022-12-11T08:31:23.547Z,59.6
2022-12-11T08:36:25.863Z,59.6
2022-12-11T08:41:24.854Z,58.6
2022-12-11T08:46:22.903Z,54
2022-12-11T08:51:23.449Z,44.9
2022-12-11T08:56:23.730Z,42.5
2022-12-11T09:01:23.115Z,38.5
2022-12-11T09:06:23.035Z,35.4
2022-12-11T09:11:23.051Z,32.7
2022-12-11T09:16:23.588Z,27.5
2022-12-11T09:21:23.046Z,24.8
2022-12-11T09:26:22.980Z,24.8
2022-12-11T09:31:23.292Z,24.8
2022-12-11T09:36:23.897Z,24.8
2022-12-11T09:41:23.797Z,24.8
2022-12-11T09:46:27.654Z,24.8
2022-12-11T09:51:22.938Z,27.2
2022-12-11T09:56:22.975Z,27.2
2022-12-11T10:01:23.121Z,25.7
2022-12-11T10:06:22.959Z,25.3
2022-12-11T10:11:22.944Z,24.1
2022-12-11T10:16:23.975Z,24.1
2022-12-11T10:21:24.598Z,24.1
2022-12-11T10:26:22.846Z,22.5
2022-12-11T10:31:23.761Z,22.1
2022-12-11T10:36:22.841Z,20.6
2022-12-11T10:41:22.914Z,19.7
2022-12-11T10:46:22.824Z,19.3
2022-12-11T10:51:22.719Z,18.7
2022-12-11T10:56:23.047Z,18.1
2022-12-11T11:01:24.234Z,16.9
2022-12-11T11:06:23.223Z,15.8
2022-12-11T11:11:22.716Z,15.8
2022-12-11T11:16:22.776Z,15.8
2022-12-11T11:21:22.705Z,14.9
2022-12-11T11:26:22.895Z,14.9
2022-12-11T11:31:22.790Z,14.8
2022-12-11T11:36:22.739Z,14.8
2022-12-11T11:41:22.923Z,15.6
2022-12-11T11:46:22.805Z,15.6
2022-12-11T11:51:23.011Z,16
2022-12-11T11:56:22.737Z,16.7
2022-12-11T12:01:22.726Z,17.1
2022-12-11T12:06:22.731Z,17.5
2022-12-11T12:11:22.730Z,17.5
2022-12-11T12:16:51.384Z,17.8
2022-12-11T12:21:22.773Z,19.1
2022-12-11T12:26:22.715Z,19.6
2022-12-11T12:31:22.811Z,19.1
2022-12-11T12:36:22.764Z,19.6
2022-12-11T12:41:22.769Z,19.7
2022-12-11T12:46:22.806Z,20.5
2022-12-11T12:51:22.776Z,20.5
2022-12-11T12:56:23.221Z,20.5
2022-12-11T13:37:44.700Z,17.7
2022-12-11T13:42:44.398Z,17.7
2022-12-11T13:47:44.285Z,18.6
2022-12-11T13:52:44.007Z,18.6
2022-12-11T13:57:45.063Z,18.7
2022-12-11T14:02:44.068Z,19.1
2022-12-11T14:07:44.305Z,18.9
2022-12-11T14:12:44.189Z,18.9
2022-12-11T14:17:51.463Z,18.6
2022-12-11T14:22:44.209Z,18.9
2022-12-11T14:27:44.396Z,19.1
2022-12-11T14:32:46.537Z,18.9
2022-12-11T14:37:44.109Z,17.1
2022-12-11T14:43:08.248Z,16.7
2022-12-11T14:48:08.424Z,15.3
2022-12-11T14:53:07.535Z,15.3
2022-12-11T14:58:10.257Z,14.7
2022-12-11T15:03:07.254Z,12.7
2022-12-11T15:08:07.082Z,12.7
2022-12-11T15:13:13.355Z,12.7
2022-12-11T15:18:07.140Z,13.8
2022-12-11T15:23:07.199Z,13.8
2022-12-11T15:28:10.998Z,13.9
2022-12-11T15:33:07.190Z,14.8
2022-12-11T15:38:07.340Z,18.2
2022-12-11T15:43:07.928Z,18.3
2022-12-11T15:48:07.120Z,14.8
2022-12-11T15:53:07.231Z,15
2022-12-11T15:58:09.576Z,16
2022-12-11T16:03:07.476Z,17.2
2022-12-11T16:08:08.349Z,17.2
2022-12-11T16:13:08.929Z,17.2
2022-12-11T16:18:07.184Z,16.6
2022-12-11T16:23:07.250Z,16.6
2022-12-11T16:28:07.167Z,17.2
2022-12-11T16:33:13.047Z,17.2
2022-12-11T16:38:07.189Z,16.6
2022-12-11T16:43:11.232Z,16.6
2022-12-11T16:48:07.195Z,16.6
2022-12-11T16:53:07.136Z,16.3
2022-12-11T16:58:12.461Z,17.3
2022-12-11T17:03:07.562Z,19.1
2022-12-11T17:08:07.298Z,19.1
2022-12-11T17:13:10.753Z,20.3
2022-12-11T17:18:11.946Z,19.1
2022-12-11T17:23:07.488Z,20.3
2022-12-11T17:28:09.840Z,20.8
2022-12-11T17:33:07.200Z,20.8
2022-12-11T17:38:07.041Z,20.8
2022-12-11T17:43:11.801Z,20.8
2022-12-11T17:48:07.095Z,20.8
2022-12-11T17:53:07.438Z,21.4
2022-12-11T17:58:09.271Z,21.4
2022-12-11T18:03:07.272Z,19.9
2022-12-11T18:08:07.195Z,19.5
2022-12-11T18:13:10.392Z,19.6
2022-12-11T18:18:07.343Z,19.6
2022-12-11T18:23:07.992Z,19.6
2022-12-11T18:28:09.951Z,19.6
2022-12-11T18:33:07.270Z,23.2
2022-12-11T18:38:07.242Z,23.2
2022-12-11T18:43:11.252Z,23.2
2022-12-11T18:48:08.508Z,25.5
2022-12-11T18:53:07.346Z,26.7
2022-12-11T18:58:09.552Z,31.1
2022-12-11T19:03:07.663Z,33.4
2022-12-11T19:08:07.300Z,33.9
2022-12-11T19:13:12.650Z,33.9
2022-12-11T19:18:07.232Z,33.9
2022-12-11T19:23:07.744Z,33.4
2022-12-11T19:28:10.219Z,33.9
2022-12-11T19:33:07.285Z,59.2
2022-12-11T19:38:07.464Z,59.2
2022-12-11T19:43:11.172Z,59.2
2022-12-11T19:48:09.495Z,33.5
2022-12-11T19:53:09.667Z,35
2022-12-11T19:58:10.833Z,37.4
2022-12-11T20:03:09.580Z,37.4
2022-12-11T20:13:10.238Z,54.6
2022-12-11T20:18:15.462Z,54.6
2022-12-11T20:23:09.867Z,57.5
2022-12-11T20:28:09.447Z,64
2022-12-11T20:33:09.375Z,72.1
2022-12-11T20:38:09.416Z,64
2022-12-11T20:43:10.388Z,64
2022-12-11T20:48:09.475Z,64
2022-12-11T20:53:09.547Z,37.1
2022-12-11T20:58:09.978Z,37.1
2022-12-11T21:03:09.731Z,37.1
2022-12-11T21:23:09.384Z,53.6
2022-12-11T21:28:09.597Z,46.8
2022-12-11T21:33:09.301Z,40
2022-12-11T21:38:09.291Z,36.7
2022-12-11T21:43:09.400Z,33.4
2022-12-11T21:48:09.264Z,33.25
2022-12-11T21:53:09.312Z,33.1
2022-12-11T21:58:09.322Z,30
2022-12-11T22:03:09.954Z,29.7
2022-12-11T22:08:09.496Z,29.7
2022-12-11T22:13:09.350Z,29.7
2022-12-11T22:18:09.410Z,29.9
2022-12-11T22:23:09.447Z,30
2022-12-11T22:28:09.280Z,29.9
2022-12-11T22:33:09.415Z,30.6
2022-12-11T22:38:09.332Z,30.6
2022-12-11T22:43:09.270Z,30.5
2022-12-11T22:48:10.739Z,29.9
2022-12-11T22:53:09.459Z,28.6
2022-12-11T22:58:09.295Z,28
2022-12-11T23:03:09.429Z,28.6
2022-12-11T23:08:10.098Z,28
2022-12-11T23:13:09.801Z,27.8
2022-12-11T23:18:09.315Z,28
2022-12-11T23:23:09.934Z,28.6
2022-12-11T23:28:09.266Z,28.7
2022-12-11T23:33:09.291Z,29.3
2022-12-11T23:38:09.330Z,29.4
2022-12-11T23:43:09.930Z,29.7
2022-12-11T23:48:09.262Z,29.7
2022-12-11T23:53:10.289Z,30.6
2022-12-11T23:58:09.274Z,32.4
